sensor_id;sensor_type;location;lat;lon;timestamp;P1;durP1;ratioP1;P2;durP2;ratioP2
22248;SDS011;67538;52.180;5.646;2023-08-17T00:00:18;5.57;;;2.20;;
22248;SDS011;67538;52.180;5.646;2023-08-17T00:02:45;6.50;;;2.53;;
22248;SDS011;67538;52.180;5.646;2023-08-17T00:05:12;7.03;;;2.63;;
22248;SDS011;67538;52.180;5.646;2023-08-17T00:07:40;8.48;;;2.70;;
22248;SDS011;67538;52.180;5.646;2023-08-17T00:10:07;6.60;;;2.42;;
22248;SDS011;67538;52.180;5.646;2023-08-17T00:12:35;6.40;;;2.47;;
22248;SDS011;67538;52.180;5.646;2023-08-17T00:15:04;7.88;;;2.60;;
22248;SDS011;67538;52.180;5.646;2023-08-17T00:17:32;7.90;;;2.60;;
22248;SDS011;67538;52.180;5.646;2023-08-17T00:19:59;7.15;;;2.40;;
22248;SDS011;67538;52.180;5.646;2023-08-17T00:22:26;7.90;;;2.25;;
22248;SDS011;67538;52.180;5.646;2023-08-17T00:24:53;6.53;;;2.50;;
22248;SDS011;67538;52.180;5.646;2023-08-17T00:27:20;6.03;;;2.53;;
22248;SDS011;67538;52.180;5.646;2023-08-17T00:29:47;8.43;;;2.33;;
22248;SDS011;67538;52.180;5.646;2023-08-17T00:32:15;6.22;;;2.30;;
22248;SDS011;67538;52.180;5.646;2023-08-17T00:34:42;4.88;;;2.30;;
22248;SDS011;67538;52.180;5.646;2023-08-17T00:37:09;7.10;;;2.30;;
22248;SDS011;67538;52.180;5.646;2023-08-17T00:39:36;6.50;;;2.40;;
22248;SDS011;67538;52.180;5.646;2023-08-17T00:42:03;6.47;;;2.13;;
22248;SDS011;67538;52.180;5.646;2023-08-17T00:44:33;6.28;;;2.30;;
22248;SDS011;67538;52.180;5.646;2023-08-17T00:47:00;5.55;;;2.30;;
22248;SDS011;67538;52.180;5.646;2023-08-17T00:49:28;5.40;;;2.15;;
22248;SDS011;67538;52.180;5.646;2023-08-17T00:51:56;6.45;;;2.40;;
22248;SDS011;67538;52.180;5.646;2023-08-17T00:54:23;6.85;;;2.38;;
22248;SDS011;67538;52.180;5.646;2023-08-17T00:56:52;7.15;;;2.40;;
22248;SDS011;67538;52.180;5.646;2023-08-17T00:59:19;5.22;;;2.22;;
22248;SDS011;67538;52.180;5.646;2023-08-17T01:01:47;5.73;;;2.10;;
22248;SDS011;67538;52.180;5.646;2023-08-17T01:04:15;6.80;;;2.33;;
22248;SDS011;67538;52.180;5.646;2023-08-17T01:06:43;5.50;;;2.13;;
22248;SDS011;67538;52.180;5.646;2023-08-17T01:09:10;3.92;;;2.30;;
22248;SDS011;67538;52.180;5.646;2023-08-17T01:11:39;5.18;;;2.17;;
22248;SDS011;67538;52.180;5.646;2023-08-17T01:14:16;5.90;;;2.20;;
22248;SDS011;67538;52.180;5.646;2023-08-17T01:16:52;8.63;;;2.40;;
22248;SDS011;67538;52.180;5.646;2023-08-17T01:19:28;7.97;;;2.58;;
22248;SDS011;67538;52.180;5.646;2023-08-17T01:22:00;6.47;;;2.23;;
22248;SDS011;67538;52.180;5.646;2023-08-17T01:24:31;8.25;;;2.47;;
22248;SDS011;67538;52.180;5.646;2023-08-17T01:26:58;7.38;;;2.30;;
22248;SDS011;67538;52.180;5.646;2023-08-17T01:29:25;6.70;;;2.47;;
22248;SDS011;67538;52.180;5.646;2023-08-17T01:31:54;5.73;;;2.30;;
22248;SDS011;67538;52.180;5.646;2023-08-17T01:34:26;8.75;;;2.78;;
22248;SDS011;67538;52.180;5.646;2023-08-17T01:36:57;5.68;;;2.42;;
22248;SDS011;67538;52.180;5.646;2023-08-17T01:39:27;6.25;;;2.35;;
22248;SDS011;67538;52.180;5.646;2023-08-17T01:42:01;7.35;;;2.30;;
22248;SDS011;67538;52.180;5.646;2023-08-17T01:44:29;8.15;;;2.50;;
22248;SDS011;67538;52.180;5.646;2023-08-17T01:46:56;7.10;;;2.53;;
22248;SDS011;67538;52.180;5.646;2023-08-17T01:49:23;6.15;;;2.60;;
22248;SDS011;67538;52.180;5.646;2023-08-17T01:51:50;9.50;;;2.60;;
22248;SDS011;67538;52.180;5.646;2023-08-17T01:54:17;6.55;;;2.60;;
22248;SDS011;67538;52.180;5.646;2023-08-17T01:56:46;7.90;;;2.70;;
22248;SDS011;67538;52.180;5.646;2023-08-17T01:59:13;7.78;;;2.50;;
22248;SDS011;67538;52.180;5.646;2023-08-17T02:01:40;7.72;;;2.58;;
22248;SDS011;67538;52.180;5.646;2023-08-17T02:04:07;5.97;;;2.55;;
22248;SDS011;67538;52.180;5.646;2023-08-17T02:06:34;7.63;;;2.40;;
22248;SDS011;67538;52.180;5.646;2023-08-17T02:09:01;6.05;;;2.15;;
22248;SDS011;67538;52.180;5.646;2023-08-17T02:11:28;6.63;;;2.15;;
22248;SDS011;67538;52.180;5.646;2023-08-17T02:13:57;6.85;;;2.38;;
22248;SDS011;67538;52.180;5.646;2023-08-17T02:16:24;5.95;;;2.30;;
22248;SDS011;67538;52.180;5.646;2023-08-17T02:18:51;7.95;;;2.70;;
22248;SDS011;67538;52.180;5.646;2023-08-17T02:21:18;8.63;;;2.50;;
22248;SDS011;67538;52.180;5.646;2023-08-17T02:23:45;7.03;;;2.35;;
22248;SDS011;67538;52.180;5.646;2023-08-17T02:26:12;11.07;;;2.92;;
22248;SDS011;67538;52.180;5.646;2023-08-17T02:28:39;8.38;;;2.75;;
22248;SDS011;67538;52.180;5.646;2023-08-17T02:31:07;5.72;;;2.30;;
22248;SDS011;67538;52.180;5.646;2023-08-17T02:33:34;6.50;;;2.37;;
22248;SDS011;67538;52.180;5.646;2023-08-17T02:36:02;8.60;;;2.60;;
22248;SDS011;67538;52.180;5.646;2023-08-17T02:38:29;8.47;;;2.60;;
22248;SDS011;67538;52.180;5.646;2023-08-17T02:40:56;7.50;;;2.50;;
22248;SDS011;67538;52.180;5.646;2023-08-17T02:43:23;4.38;;;2.42;;
22248;SDS011;67538;52.180;5.646;2023-08-17T02:45:50;7.55;;;2.67;;
22248;SDS011;67538;52.180;5.646;2023-08-17T02:48:19;7.45;;;2.50;;
22248;SDS011;67538;52.180;5.646;2023-08-17T02:50:46;8.98;;;2.60;;
22248;SDS011;67538;52.180;5.646;2023-08-17T02:53:13;8.47;;;2.60;;
22248;SDS011;67538;52.180;5.646;2023-08-17T02:55:40;5.63;;;2.53;;
22248;SDS011;67538;52.180;5.646;2023-08-17T02:58:07;8.07;;;2.30;;
22248;SDS011;67538;52.180;5.646;2023-08-17T03:00:34;8.82;;;2.60;;
22248;SDS011;67538;52.180;5.646;2023-08-17T03:03:01;9.25;;;2.53;;
22248;SDS011;67538;52.180;5.646;2023-08-17T03:05:30;9.93;;;2.90;;
22248;SDS011;67538;52.180;5.646;2023-08-17T03:07:57;9.77;;;2.20;;
22248;SDS011;67538;52.180;5.646;2023-08-17T03:10:24;9.13;;;2.67;;
22248;SDS011;67538;52.180;5.646;2023-08-17T03:12:51;8.67;;;2.33;;
22248;SDS011;67538;52.180;5.646;2023-08-17T03:15:18;7.18;;;2.85;;
22248;SDS011;67538;52.180;5.646;2023-08-17T03:17:45;5.95;;;2.10;;
22248;SDS011;67538;52.180;5.646;2023-08-17T03:20:12;6.50;;;2.40;;
22248;SDS011;67538;52.180;5.646;2023-08-17T03:22:40;6.78;;;2.45;;
22248;SDS011;67538;52.180;5.646;2023-08-17T03:25:08;8.18;;;2.72;;
22248;SDS011;67538;52.180;5.646;2023-08-17T03:27:35;10.13;;;2.45;;
22248;SDS011;67538;52.180;5.646;2023-08-17T03:30:03;7.68;;;2.65;;
22248;SDS011;67538;52.180;5.646;2023-08-17T03:32:31;7.70;;;2.40;;
22248;SDS011;67538;52.180;5.646;2023-08-17T03:34:58;8.25;;;2.60;;
22248;SDS011;67538;52.180;5.646;2023-08-17T03:37:25;7.25;;;2.95;;
22248;SDS011;67538;52.180;5.646;2023-08-17T03:39:54;11.85;;;3.05;;
22248;SDS011;67538;52.180;5.646;2023-08-17T03:42:20;7.10;;;2.40;;
22248;SDS011;67538;52.180;5.646;2023-08-17T03:44:48;5.95;;;2.33;;
22248;SDS011;67538;52.180;5.646;2023-08-17T03:47:15;8.00;;;2.77;;
22248;SDS011;67538;52.180;5.646;2023-08-17T03:49:42;8.27;;;2.60;;
22248;SDS011;67538;52.180;5.646;2023-08-17T03:52:10;9.02;;;2.67;;
22248;SDS011;67538;52.180;5.646;2023-08-17T03:54:37;5.47;;;2.33;;
22248;SDS011;67538;52.180;5.646;2023-08-17T03:57:05;5.72;;;2.33;;
22248;SDS011;67538;52.180;5.646;2023-08-17T03:59:33;6.78;;;2.85;;
22248;SDS011;67538;52.180;5.646;2023-08-17T04:02:00;7.40;;;2.50;;
22248;SDS011;67538;52.180;5.646;2023-08-17T04:04:27;8.68;;;2.70;;
22248;SDS011;67538;52.180;5.646;2023-08-17T04:06:54;7.65;;;2.60;;
22248;SDS011;67538;52.180;5.646;2023-08-17T04:09:21;8.40;;;2.92;;
22248;SDS011;67538;52.180;5.646;2023-08-17T04:11:48;8.23;;;2.60;;
22248;SDS011;67538;52.180;5.646;2023-08-17T04:14:16;8.40;;;2.65;;
22248;SDS011;67538;52.180;5.646;2023-08-17T04:16:43;7.60;;;2.47;;
22248;SDS011;67538;52.180;5.646;2023-08-17T04:19:10;7.63;;;2.70;;
22248;SDS011;67538;52.180;5.646;2023-08-17T04:21:37;6.30;;;2.50;;
22248;SDS011;67538;52.180;5.646;2023-08-17T04:24:05;6.90;;;2.80;;
22248;SDS011;67538;52.180;5.646;2023-08-17T04:26:32;6.07;;;2.42;;
22248;SDS011;67538;52.180;5.646;2023-08-17T04:28:59;6.28;;;2.70;;
22248;SDS011;67538;52.180;5.646;2023-08-17T04:31:28;5.65;;;2.45;;
22248;SDS011;67538;52.180;5.646;2023-08-17T04:33:55;7.07;;;2.40;;
22248;SDS011;67538;52.180;5.646;2023-08-17T04:36:21;9.10;;;2.50;;
22248;SDS011;67538;52.180;5.646;2023-08-17T04:38:48;6.97;;;2.50;;
22248;SDS011;67538;52.180;5.646;2023-08-17T04:41:15;4.53;;;2.20;;
22248;SDS011;67538;52.180;5.646;2023-08-17T04:43:43;7.37;;;2.70;;
22248;SDS011;67538;52.180;5.646;2023-08-17T04:46:11;6.95;;;2.30;;
22248;SDS011;67538;52.180;5.646;2023-08-17T04:48:40;6.50;;;2.35;;
22248;SDS011;67538;52.180;5.646;2023-08-17T04:51:07;10.32;;;2.75;;
22248;SDS011;67538;52.180;5.646;2023-08-17T04:53:34;5.88;;;2.50;;
22248;SDS011;67538;52.180;5.646;2023-08-17T04:56:02;10.05;;;3.08;;
22248;SDS011;67538;52.180;5.646;2023-08-17T04:58:29;5.30;;;2.28;;
22248;SDS011;67538;52.180;5.646;2023-08-17T05:00:56;6.95;;;2.50;;
22248;SDS011;67538;52.180;5.646;2023-08-17T05:03:23;9.18;;;2.63;;
22248;SDS011;67538;52.180;5.646;2023-08-17T05:05:53;11.87;;;3.20;;
22248;SDS011;67538;52.180;5.646;2023-08-17T05:08:20;7.32;;;2.50;;
22248;SDS011;67538;52.180;5.646;2023-08-17T05:10:47;6.10;;;2.47;;
22248;SDS011;67538;52.180;5.646;2023-08-17T05:13:14;8.07;;;2.65;;
22248;SDS011;67538;52.180;5.646;2023-08-17T05:15:41;8.48;;;2.65;;
22248;SDS011;67538;52.180;5.646;2023-08-17T05:18:08;8.07;;;2.35;;
22248;SDS011;67538;52.180;5.646;2023-08-17T05:20:35;5.43;;;2.58;;
22248;SDS011;67538;52.180;5.646;2023-08-17T05:23:04;8.38;;;2.67;;
22248;SDS011;67538;52.180;5.646;2023-08-17T05:25:31;8.30;;;2.80;;
22248;SDS011;67538;52.180;5.646;2023-08-17T05:27:58;7.72;;;2.45;;
22248;SDS011;67538;52.180;5.646;2023-08-17T05:30:25;7.65;;;2.55;;
22248;SDS011;67538;52.180;5.646;2023-08-17T05:32:52;8.40;;;2.70;;
22248;SDS011;67538;52.180;5.646;2023-08-17T05:35:19;6.45;;;2.80;;
22248;SDS011;67538;52.180;5.646;2023-08-17T05:37:46;7.22;;;2.53;;
22248;SDS011;67538;52.180;5.646;2023-08-17T05:40:15;6.90;;;2.60;;
22248;SDS011;67538;52.180;5.646;2023-08-17T05:42:42;5.63;;;2.42;;
22248;SDS011;67538;52.180;5.646;2023-08-17T05:45:09;6.40;;;2.70;;
22248;SDS011;67538;52.180;5.646;2023-08-17T05:47:36;5.30;;;2.42;;
22248;SDS011;67538;52.180;5.646;2023-08-17T05:50:03;8.87;;;2.77;;
22248;SDS011;67538;52.180;5.646;2023-08-17T05:52:31;7.60;;;2.47;;
22248;SDS011;67538;52.180;5.646;2023-08-17T05:54:59;6.07;;;2.40;;
22248;SDS011;67538;52.180;5.646;2023-08-17T05:57:27;7.07;;;2.70;;
22248;SDS011;67538;52.180;5.646;2023-08-17T05:59:54;7.20;;;2.70;;
22248;SDS011;67538;52.180;5.646;2023-08-17T06:02:21;8.65;;;2.80;;
22248;SDS011;67538;52.180;5.646;2023-08-17T06:04:48;9.60;;;2.50;;
22248;SDS011;67538;52.180;5.646;2023-08-17T06:07:15;6.78;;;2.38;;
22248;SDS011;67538;52.180;5.646;2023-08-17T06:09:42;8.27;;;2.67;;
22248;SDS011;67538;52.180;5.646;2023-08-17T06:12:09;4.70;;;2.30;;
22248;SDS011;67538;52.180;5.646;2023-08-17T06:14:37;9.75;;;2.60;;
22248;SDS011;67538;52.180;5.646;2023-08-17T06:17:05;8.25;;;2.50;;
22248;SDS011;67538;52.180;5.646;2023-08-17T06:19:32;7.75;;;2.85;;
22248;SDS011;67538;52.180;5.646;2023-08-17T06:21:59;9.55;;;2.60;;
22248;SDS011;67538;52.180;5.646;2023-08-17T06:24:26;7.10;;;2.65;;
22248;SDS011;67538;52.180;5.646;2023-08-17T06:26:53;8.88;;;2.80;;
22248;SDS011;67538;52.180;5.646;2023-08-17T06:29:20;9.07;;;3.03;;
22248;SDS011;67538;52.180;5.646;2023-08-17T06:31:48;9.90;;;2.90;;
22248;SDS011;67538;52.180;5.646;2023-08-17T06:34:15;7.43;;;2.70;;
22248;SDS011;67538;52.180;5.646;2023-08-17T06:36:42;6.00;;;3.10;;
22248;SDS011;67538;52.180;5.646;2023-08-17T06:39:23;9.65;;;3.20;;
22248;SDS011;67538;52.180;5.646;2023-08-17T06:41:50;9.52;;;3.17;;
22248;SDS011;67538;52.180;5.646;2023-08-17T06:44:17;9.80;;;3.20;;
22248;SDS011;67538;52.180;5.646;2023-08-17T06:46:44;7.45;;;3.00;;
22248;SDS011;67538;52.180;5.646;2023-08-17T06:49:13;6.18;;;2.80;;
22248;SDS011;67538;52.180;5.646;2023-08-17T06:51:40;26.42;;;4.10;;
22248;SDS011;67538;52.180;5.646;2023-08-17T06:54:07;9.80;;;2.85;;
22248;SDS011;67538;52.180;5.646;2023-08-17T06:56:34;9.10;;;3.05;;
22248;SDS011;67538;52.180;5.646;2023-08-17T06:59:02;8.05;;;3.00;;
22248;SDS011;67538;52.180;5.646;2023-08-17T07:01:29;8.13;;;3.22;;
22248;SDS011;67538;52.180;5.646;2023-08-17T07:03:56;9.63;;;3.30;;
22248;SDS011;67538;52.180;5.646;2023-08-17T07:06:23;7.30;;;2.88;;
22248;SDS011;67538;52.180;5.646;2023-08-17T07:08:50;10.07;;;3.28;;
22248;SDS011;67538;52.180;5.646;2023-08-17T07:11:18;10.88;;;3.72;;
22248;SDS011;67538;52.180;5.646;2023-08-17T07:13:45;6.53;;;2.95;;
22248;SDS011;67538;52.180;5.646;2023-08-17T07:16:12;10.43;;;3.33;;
22248;SDS011;67538;52.180;5.646;2023-08-17T07:18:39;7.82;;;3.03;;
22248;SDS011;67538;52.180;5.646;2023-08-17T07:21:06;10.90;;;3.10;;
22248;SDS011;67538;52.180;5.646;2023-08-17T07:23:35;9.98;;;2.95;;
22248;SDS011;67538;52.180;5.646;2023-08-17T07:26:02;11.70;;;3.17;;
22248;SDS011;67538;52.180;5.646;2023-08-17T07:28:29;8.82;;;2.83;;
22248;SDS011;67538;52.180;5.646;2023-08-17T07:30:56;9.43;;;2.92;;
22248;SDS011;67538;52.180;5.646;2023-08-17T07:33:23;7.45;;;3.00;;
22248;SDS011;67538;52.180;5.646;2023-08-17T07:35:50;9.15;;;3.08;;
22248;SDS011;67538;52.180;5.646;2023-08-17T07:38:18;18.55;;;3.30;;
22248;SDS011;67538;52.180;5.646;2023-08-17T07:40:46;6.03;;;2.60;;
22248;SDS011;67538;52.180;5.646;2023-08-17T07:43:13;6.23;;;2.70;;
22248;SDS011;67538;52.180;5.646;2023-08-17T07:45:40;9.27;;;2.77;;
22248;SDS011;67538;52.180;5.646;2023-08-17T07:48:07;5.77;;;2.50;;
22248;SDS011;67538;52.180;5.646;2023-08-17T07:50:34;26.57;;;3.53;;
22248;SDS011;67538;52.180;5.646;2023-08-17T07:53:01;7.53;;;2.30;;
22248;SDS011;67538;52.180;5.646;2023-08-17T07:55:29;10.48;;;2.63;;
22248;SDS011;67538;52.180;5.646;2023-08-17T07:57:57;9.02;;;2.47;;
22248;SDS011;67538;52.180;5.646;2023-08-17T08:00:24;9.65;;;2.65;;
22248;SDS011;67538;52.180;5.646;2023-08-17T08:02:51;7.20;;;2.60;;
22248;SDS011;67538;52.180;5.646;2023-08-17T08:05:18;5.53;;;2.50;;
22248;SDS011;67538;52.180;5.646;2023-08-17T08:07:45;7.85;;;2.22;;
22248;SDS011;67538;52.180;5.646;2023-08-17T08:10:12;12.30;;;2.88;;
22248;SDS011;67538;52.180;5.646;2023-08-17T08:12:39;7.68;;;2.47;;
22248;SDS011;67538;52.180;5.646;2023-08-17T08:15:08;7.68;;;2.80;;
22248;SDS011;67538;52.180;5.646;2023-08-17T08:17:35;7.00;;;2.65;;
22248;SDS011;67538;52.180;5.646;2023-08-17T08:20:03;6.97;;;2.00;;
22248;SDS011;67538;52.180;5.646;2023-08-17T08:22:31;9.20;;;2.30;;
22248;SDS011;67538;52.180;5.646;2023-08-17T08:24:58;6.97;;;2.20;;
22248;SDS011;67538;52.180;5.646;2023-08-17T08:27:25;7.80;;;2.35;;
22248;SDS011;67538;52.180;5.646;2023-08-17T08:29:52;9.68;;;2.45;;
22248;SDS011;67538;52.180;5.646;2023-08-17T08:32:20;7.53;;;2.43;;
22248;SDS011;67538;52.180;5.646;2023-08-17T08:34:47;8.88;;;2.65;;
22248;SDS011;67538;52.180;5.646;2023-08-17T08:37:14;6.25;;;2.13;;
22248;SDS011;67538;52.180;5.646;2023-08-17T08:39:47;11.23;;;2.70;;
22248;SDS011;67538;52.180;5.646;2023-08-17T08:42:16;6.83;;;2.40;;
22248;SDS011;67538;52.180;5.646;2023-08-17T08:44:43;10.63;;;2.90;;
22248;SDS011;67538;52.180;5.646;2023-08-17T08:47:10;7.97;;;2.40;;
22248;SDS011;67538;52.180;5.646;2023-08-17T08:49:40;7.70;;;2.50;;
22248;SDS011;67538;52.180;5.646;2023-08-17T08:52:11;6.85;;;2.55;;
22248;SDS011;67538;52.180;5.646;2023-08-17T08:54:45;8.07;;;2.85;;
22248;SDS011;67538;52.180;5.646;2023-08-17T08:57:17;9.90;;;3.05;;
22248;SDS011;67538;52.180;5.646;2023-08-17T08:59:45;9.05;;;2.70;;
22248;SDS011;67538;52.180;5.646;2023-08-17T09:02:14;5.68;;;2.38;;
22248;SDS011;67538;52.180;5.646;2023-08-17T09:04:43;11.43;;;3.30;;
22248;SDS011;67538;52.180;5.646;2023-08-17T09:07:11;12.13;;;3.08;;
22248;SDS011;67538;52.180;5.646;2023-08-17T09:09:39;10.15;;;2.85;;
22248;SDS011;67538;52.180;5.646;2023-08-17T09:12:06;11.15;;;3.10;;
22248;SDS011;67538;52.180;5.646;2023-08-17T09:14:35;11.38;;;3.00;;
22248;SDS011;67538;52.180;5.646;2023-08-17T09:17:02;12.27;;;3.42;;
22248;SDS011;67538;52.180;5.646;2023-08-17T09:19:31;11.07;;;3.67;;
22248;SDS011;67538;52.180;5.646;2023-08-17T09:22:00;8.90;;;3.35;;
22248;SDS011;67538;52.180;5.646;2023-08-17T09:24:33;13.88;;;3.50;;
22248;SDS011;67538;52.180;5.646;2023-08-17T09:27:01;22.77;;;3.80;;
22248;SDS011;67538;52.180;5.646;2023-08-17T09:29:29;16.85;;;3.80;;
22248;SDS011;67538;52.180;5.646;2023-08-17T09:32:04;17.10;;;3.80;;
22248;SDS011;67538;52.180;5.646;2023-08-17T09:34:31;9.77;;;3.72;;
22248;SDS011;67538;52.180;5.646;2023-08-17T09:37:03;20.83;;;3.53;;
22248;SDS011;67538;52.180;5.646;2023-08-17T09:39:30;24.05;;;4.57;;
22248;SDS011;67538;52.180;5.646;2023-08-17T09:41:58;18.10;;;4.05;;
22248;SDS011;67538;52.180;5.646;2023-08-17T09:44:26;11.10;;;3.60;;
22248;SDS011;67538;52.180;5.646;2023-08-17T09:46:54;33.83;;;5.30;;
22248;SDS011;67538;52.180;5.646;2023-08-17T09:49:23;8.88;;;3.42;;
22248;SDS011;67538;52.180;5.646;2023-08-17T09:51:50;12.47;;;3.77;;
22248;SDS011;67538;52.180;5.646;2023-08-17T09:54:21;11.50;;;3.70;;
22248;SDS011;67538;52.180;5.646;2023-08-17T09:56:52;14.50;;;3.90;;
22248;SDS011;67538;52.180;5.646;2023-08-17T09:59:19;17.65;;;4.30;;
22248;SDS011;67538;52.180;5.646;2023-08-17T10:01:48;12.17;;;3.77;;
22248;SDS011;67538;52.180;5.646;2023-08-17T10:04:21;10.07;;;3.78;;
22248;SDS011;67538;52.180;5.646;2023-08-17T10:06:51;10.75;;;4.20;;
22248;SDS011;67538;52.180;5.646;2023-08-17T10:09:25;8.57;;;3.75;;
22248;SDS011;67538;52.180;5.646;2023-08-17T10:11:56;12.82;;;3.67;;
22248;SDS011;67538;52.180;5.646;2023-08-17T10:14:28;10.10;;;4.00;;
22248;SDS011;67538;52.180;5.646;2023-08-17T10:17:00;9.90;;;3.70;;
22248;SDS011;67538;52.180;5.646;2023-08-17T10:19:37;12.95;;;4.20;;
22248;SDS011;67538;52.180;5.646;2023-08-17T10:22:11;11.02;;;4.05;;
22248;SDS011;67538;52.180;5.646;2023-08-17T10:24:44;9.85;;;4.40;;
22248;SDS011;67538;52.180;5.646;2023-08-17T10:27:11;15.07;;;4.22;;
22248;SDS011;67538;52.180;5.646;2023-08-17T10:29:39;13.73;;;4.15;;
22248;SDS011;67538;52.180;5.646;2023-08-17T10:32:08;12.82;;;4.20;;
22248;SDS011;67538;52.180;5.646;2023-08-17T10:34:35;10.95;;;4.28;;
22248;SDS011;67538;52.180;5.646;2023-08-17T10:37:03;8.52;;;3.92;;
22248;SDS011;67538;52.180;5.646;2023-08-17T10:39:32;14.65;;;4.45;;
22248;SDS011;67538;52.180;5.646;2023-08-17T10:42:01;12.23;;;4.30;;
22248;SDS011;67538;52.180;5.646;2023-08-17T10:44:37;10.98;;;4.45;;
22248;SDS011;67538;52.180;5.646;2023-08-17T10:47:18;12.32;;;4.20;;
22248;SDS011;67538;52.180;5.646;2023-08-17T10:49:47;12.95;;;4.50;;
22248;SDS011;67538;52.180;5.646;2023-08-17T10:52:15;10.40;;;4.27;;
22248;SDS011;67538;52.180;5.646;2023-08-17T10:54:52;11.40;;;4.40;;
22248;SDS011;67538;52.180;5.646;2023-08-17T10:57:31;12.00;;;4.00;;
22248;SDS011;67538;52.180;5.646;2023-08-17T11:00:09;13.18;;;3.90;;
22248;SDS011;67538;52.180;5.646;2023-08-17T11:02:42;12.85;;;4.00;;
22248;SDS011;67538;52.180;5.646;2023-08-17T11:05:10;12.65;;;4.05;;
22248;SDS011;67538;52.180;5.646;2023-08-17T11:07:39;11.68;;;4.10;;
22248;SDS011;67538;52.180;5.646;2023-08-17T11:10:26;12.00;;;4.25;;
22248;SDS011;67538;52.180;5.646;2023-08-17T11:12:56;10.55;;;4.00;;
22248;SDS011;67538;52.180;5.646;2023-08-17T11:15:26;11.57;;;4.07;;
22248;SDS011;67538;52.180;5.646;2023-08-17T11:18:04;12.20;;;4.38;;
22248;SDS011;67538;52.180;5.646;2023-08-17T11:20:32;10.77;;;4.13;;
22248;SDS011;67538;52.180;5.646;2023-08-17T11:22:59;10.73;;;4.32;;
22248;SDS011;67538;52.180;5.646;2023-08-17T11:25:27;13.15;;;4.70;;
22248;SDS011;67538;52.180;5.646;2023-08-17T11:27:56;13.13;;;4.30;;
22248;SDS011;67538;52.180;5.646;2023-08-17T11:30:23;12.77;;;4.15;;
22248;SDS011;67538;52.180;5.646;2023-08-17T11:32:50;14.23;;;4.10;;
22248;SDS011;67538;52.180;5.646;2023-08-17T11:35:19;11.05;;;3.88;;
22248;SDS011;67538;52.180;5.646;2023-08-17T11:37:47;11.50;;;4.13;;
22248;SDS011;67538;52.180;5.646;2023-08-17T11:40:16;12.85;;;4.10;;
22248;SDS011;67538;52.180;5.646;2023-08-17T11:42:44;11.90;;;4.20;;
22248;SDS011;67538;52.180;5.646;2023-08-17T11:45:13;8.80;;;4.03;;
22248;SDS011;67538;52.180;5.646;2023-08-17T11:47:41;12.70;;;3.80;;
22248;SDS011;67538;52.180;5.646;2023-08-17T11:50:09;8.30;;;3.97;;
22248;SDS011;67538;52.180;5.646;2023-08-17T11:52:37;25.58;;;4.88;;
22248;SDS011;67538;52.180;5.646;2023-08-17T11:55:05;12.73;;;4.40;;
22248;SDS011;67538;52.180;5.646;2023-08-17T11:57:35;23.17;;;4.78;;
22248;SDS011;67538;52.180;5.646;2023-08-17T12:00:02;9.43;;;4.28;;
22248;SDS011;67538;52.180;5.646;2023-08-17T12:02:33;9.20;;;3.85;;
22248;SDS011;67538;52.180;5.646;2023-08-17T12:05:03;6.88;;;3.75;;
22248;SDS011;67538;52.180;5.646;2023-08-17T12:07:31;10.50;;;4.13;;
22248;SDS011;67538;52.180;5.646;2023-08-17T12:09:58;8.90;;;4.28;;
22248;SDS011;67538;52.180;5.646;2023-08-17T12:12:25;8.07;;;4.00;;
22248;SDS011;67538;52.180;5.646;2023-08-17T12:14:53;8.55;;;3.75;;
22248;SDS011;67538;52.180;5.646;2023-08-17T12:17:21;12.43;;;4.10;;
22248;SDS011;67538;52.180;5.646;2023-08-17T12:19:49;8.77;;;4.10;;
22248;SDS011;67538;52.180;5.646;2023-08-17T12:22:22;9.05;;;3.78;;
22248;SDS011;67538;52.180;5.646;2023-08-17T12:24:50;7.17;;;3.43;;
22248;SDS011;67538;52.180;5.646;2023-08-17T12:27:17;18.27;;;4.53;;
22248;SDS011;67538;52.180;5.646;2023-08-17T12:29:47;10.05;;;3.90;;
22248;SDS011;67538;52.180;5.646;2023-08-17T12:32:15;17.20;;;4.45;;
22248;SDS011;67538;52.180;5.646;2023-08-17T12:34:43;15.52;;;4.35;;
22248;SDS011;67538;52.180;5.646;2023-08-17T12:37:12;7.57;;;4.20;;
22248;SDS011;67538;52.180;5.646;2023-08-17T12:39:45;6.60;;;3.92;;
22248;SDS011;67538;52.180;5.646;2023-08-17T12:42:12;9.18;;;3.90;;
22248;SDS011;67538;52.180;5.646;2023-08-17T12:44:40;8.63;;;3.90;;
22248;SDS011;67538;52.180;5.646;2023-08-17T12:47:07;12.00;;;3.70;;
22248;SDS011;67538;52.180;5.646;2023-08-17T12:49:35;11.60;;;4.13;;
22248;SDS011;67538;52.180;5.646;2023-08-17T12:52:02;7.65;;;4.10;;
22248;SDS011;67538;52.180;5.646;2023-08-17T12:54:31;25.80;;;5.35;;
22248;SDS011;67538;52.180;5.646;2023-08-17T12:56:58;21.65;;;4.45;;
22248;SDS011;67538;52.180;5.646;2023-08-17T12:59:26;9.82;;;3.95;;
22248;SDS011;67538;52.180;5.646;2023-08-17T13:01:53;13.00;;;4.13;;
22248;SDS011;67538;52.180;5.646;2023-08-17T13:04:20;14.30;;;4.13;;
22248;SDS011;67538;52.180;5.646;2023-08-17T13:06:47;9.35;;;4.32;;
22248;SDS011;67538;52.180;5.646;2023-08-17T13:09:16;8.55;;;4.38;;
22248;SDS011;67538;52.180;5.646;2023-08-17T13:11:45;15.00;;;4.57;;
22248;SDS011;67538;52.180;5.646;2023-08-17T13:14:12;39.33;;;5.32;;
22248;SDS011;67538;52.180;5.646;2023-08-17T13:16:40;6.95;;;3.70;;
22248;SDS011;67538;52.180;5.646;2023-08-17T13:19:07;7.97;;;4.03;;
22248;SDS011;67538;52.180;5.646;2023-08-17T13:21:34;8.75;;;4.25;;
22248;SDS011;67538;52.180;5.646;2023-08-17T13:24:01;9.50;;;4.30;;
22248;SDS011;67538;52.180;5.646;2023-08-17T13:26:28;8.32;;;4.03;;
22248;SDS011;67538;52.180;5.646;2023-08-17T13:28:57;10.80;;;4.57;;
22248;SDS011;67538;52.180;5.646;2023-08-17T13:31:24;14.73;;;5.38;;
22248;SDS011;67538;52.180;5.646;2023-08-17T13:33:51;11.77;;;4.88;;
22248;SDS011;67538;52.180;5.646;2023-08-17T13:36:18;8.00;;;4.60;;
22248;SDS011;67538;52.180;5.646;2023-08-17T13:38:45;9.20;;;4.68;;
22248;SDS011;67538;52.180;5.646;2023-08-17T13:41:12;11.65;;;5.10;;
22248;SDS011;67538;52.180;5.646;2023-08-17T13:43:39;9.48;;;5.15;;
22248;SDS011;67538;52.180;5.646;2023-08-17T13:46:08;13.80;;;5.85;;
22248;SDS011;67538;52.180;5.646;2023-08-17T13:48:35;10.10;;;5.32;;
22248;SDS011;67538;52.180;5.646;2023-08-17T13:51:04;8.57;;;4.70;;
22248;SDS011;67538;52.180;5.646;2023-08-17T13:53:31;9.47;;;5.00;;
22248;SDS011;67538;52.180;5.646;2023-08-17T13:55:58;7.93;;;4.60;;
22248;SDS011;67538;52.180;5.646;2023-08-17T13:58:25;10.43;;;4.70;;
22248;SDS011;67538;52.180;5.646;2023-08-17T14:00:52;27.17;;;6.50;;
22248;SDS011;67538;52.180;5.646;2023-08-17T14:03:20;20.50;;;5.87;;
22248;SDS011;67538;52.180;5.646;2023-08-17T14:05:47;13.75;;;5.47;;
22248;SDS011;67538;52.180;5.646;2023-08-17T14:08:14;23.55;;;6.30;;
22248;SDS011;67538;52.180;5.646;2023-08-17T14:10:41;34.65;;;6.63;;
22248;SDS011;67538;52.180;5.646;2023-08-17T14:13:08;12.30;;;4.97;;
22248;SDS011;67538;52.180;5.646;2023-08-17T14:15:35;9.93;;;5.13;;
22248;SDS011;67538;52.180;5.646;2023-08-17T14:18:03;16.35;;;5.15;;
22248;SDS011;67538;52.180;5.646;2023-08-17T14:20:32;10.02;;;5.50;;
22248;SDS011;67538;52.180;5.646;2023-08-17T14:22:59;10.45;;;5.22;;
22248;SDS011;67538;52.180;5.646;2023-08-17T14:25:26;13.63;;;6.00;;
22248;SDS011;67538;52.180;5.646;2023-08-17T14:27:53;16.77;;;6.35;;
22248;SDS011;67538;52.180;5.646;2023-08-17T14:30:20;9.85;;;5.18;;
22248;SDS011;67538;52.180;5.646;2023-08-17T14:32:49;8.30;;;4.72;;
22248;SDS011;67538;52.180;5.646;2023-08-17T14:35:16;11.63;;;5.90;;
22248;SDS011;67538;52.180;5.646;2023-08-17T14:37:45;23.13;;;6.43;;
22248;SDS011;67538;52.180;5.646;2023-08-17T14:40:12;10.38;;;5.40;;
22248;SDS011;67538;52.180;5.646;2023-08-17T14:42:39;14.93;;;5.93;;
22248;SDS011;67538;52.180;5.646;2023-08-17T14:45:07;11.03;;;5.10;;
22248;SDS011;67538;52.180;5.646;2023-08-17T14:47:35;15.15;;;5.85;;